createdAt,value
2023-02-22T00:00:18.089Z,58.12
2023-02-22T00:02:56.237Z,58.03
2023-02-22T00:05:28.830Z,59.91
2023-02-22T00:08:00.378Z,60.50
2023-02-22T00:10:32.046Z,59.30
2023-02-22T00:13:05.981Z,58.78
2023-02-22T00:15:37.591Z,58.93
2023-02-22T00:18:12.012Z,59.37
2023-02-22T00:20:43.599Z,59.40
2023-02-22T00:23:18.546Z,60.18
2023-02-22T00:25:50.802Z,59.89
2023-02-22T00:28:22.913Z,59.34
2023-02-22T00:30:54.572Z,58.97
2023-02-22T00:33:26.185Z,59.53
2023-02-22T00:35:58.610Z,60.21
2023-02-22T00:38:35.810Z,59.88
2023-02-22T00:41:08.115Z,59.01
2023-02-22T00:43:39.662Z,58.30
2023-02-22T00:46:13.720Z,58.28
2023-02-22T00:48:45.367Z,59.77
2023-02-22T00:51:17.282Z,59.35
2023-02-22T00:53:49.122Z,58.42
2023-02-22T00:56:20.893Z,58.44
2023-02-22T00:58:52.527Z,57.25
2023-02-22T01:01:24.419Z,58.46
2023-02-22T01:03:56.127Z,59.88
2023-02-22T01:06:28.144Z,59.99
2023-02-22T01:08:59.963Z,58.36
2023-02-22T01:11:31.638Z,59.19
2023-02-22T01:14:03.298Z,58.53
2023-02-22T01:16:35.631Z,58.35
2023-02-22T01:19:07.394Z,58.28
2023-02-22T01:21:40.734Z,58.44
2023-02-22T01:24:12.613Z,58.07
2023-02-22T01:26:50.641Z,57.83
2023-02-22T01:29:22.348Z,58.20
2023-02-22T01:31:56.359Z,58.69
2023-02-22T01:34:28.675Z,58.93
2023-02-22T01:37:00.796Z,59.59
2023-02-22T01:39:33.047Z,59.24
2023-02-22T01:42:04.676Z,59.22
2023-02-22T01:44:38.865Z,60.79
2023-02-22T01:47:10.425Z,59.28
2023-02-22T01:49:47.700Z,59.17
2023-02-22T01:52:21.514Z,59.79
2023-02-22T01:54:58.592Z,59.22
2023-02-22T01:57:36.689Z,59.11
2023-02-22T02:00:13.591Z,59.53
2023-02-22T02:02:51.022Z,59.67
2023-02-22T02:05:29.151Z,59.83
2023-02-22T02:08:13.322Z,58.87
2023-02-22T02:10:48.542Z,59.50
2023-02-22T02:13:20.568Z,58.51
2023-02-22T02:15:56.847Z,59.95
2023-02-22T02:18:29.782Z,61.53
2023-02-22T02:21:39.182Z,61.68
2023-02-22T02:24:32.723Z,61.34
2023-02-22T02:27:27.485Z,63.40
2023-02-22T02:30:24.010Z,62.92
2023-02-22T02:33:01.491Z,61.60
2023-02-22T02:35:45.290Z,60.02
2023-02-22T02:38:38.506Z,60.60
2023-02-22T02:41:18.624Z,59.91
2023-02-22T02:44:07.900Z,60.59
2023-02-22T02:46:58.149Z,59.89
2023-02-22T02:49:51.601Z,59.85
2023-02-22T02:52:27.286Z,59.58
2023-02-22T02:55:01.735Z,60.09
2023-02-22T02:57:33.413Z,59.02
2023-02-22T03:00:07.811Z,60.58
2023-02-22T03:03:02.326Z,59.86
2023-02-22T03:05:52.446Z,59.56
2023-02-22T03:08:47.717Z,60.67
2023-02-22T03:11:30.518Z,60.12
2023-02-22T03:14:22.311Z,60.35
2023-02-22T03:16:57.040Z,60.51
2023-02-22T03:20:03.967Z,60.66
2023-02-22T03:22:55.635Z,60.54
2023-02-22T03:25:43.351Z,61.87
2023-02-22T03:28:19.698Z,60.82
2023-02-22T03:31:06.035Z,61.80
2023-02-22T03:33:48.873Z,60.83
2023-02-22T03:36:34.002Z,60.98
2023-02-22T03:39:13.693Z,60.82
2023-02-22T03:41:49.679Z,60.09
2023-02-22T03:44:27.536Z,60.00
2023-02-22T03:47:07.385Z,60.85
2023-02-22T03:49:53.629Z,59.62
2023-02-22T03:52:25.659Z,59.74
2023-02-22T03:54:57.526Z,60.76
2023-02-22T03:57:35.429Z,60.25
2023-02-22T04:00:12.361Z,62.12
2023-02-22T04:02:49.351Z,61.59
2023-02-22T04:05:27.161Z,60.17
2023-02-22T04:07:58.928Z,61.66
2023-02-22T04:10:32.379Z,61.55
2023-02-22T04:13:05.499Z,60.29
2023-02-22T04:15:38.408Z,60.19
2023-02-22T04:18:13.958Z,60.59
2023-02-22T04:20:46.148Z,61.20
2023-02-22T04:23:25.905Z,62.57
2023-02-22T04:25:57.846Z,61.68
2023-02-22T04:28:29.511Z,60.32
2023-02-22T04:31:11.884Z,60.22
2023-02-22T04:33:44.411Z,62.35
2023-02-22T04:36:19.708Z,62.57
2023-02-22T04:38:51.666Z,60.59
2023-02-22T04:41:25.342Z,61.33
2023-02-22T04:43:57.506Z,61.89
2023-02-22T04:46:30.900Z,62.61
2023-02-22T04:49:02.907Z,61.76
2023-02-22T04:51:37.423Z,62.26
2023-02-22T04:54:14.801Z,63.15
2023-02-22T04:56:50.027Z,62.38
2023-02-22T04:59:21.688Z,63.54
2023-02-22T05:01:59.598Z,62.92
2023-02-22T05:04:31.173Z,61.92
2023-02-22T05:07:02.824Z,63.64
2023-02-22T05:09:34.462Z,61.84
2023-02-22T05:12:06.344Z,62.22
2023-02-22T05:14:37.977Z,62.41
2023-02-22T05:17:09.644Z,63.36
2023-02-22T05:19:41.254Z,61.61
2023-02-22T05:22:12.908Z,61.59
2023-02-22T05:24:44.530Z,61.73
2023-02-22T05:27:16.127Z,62.95
2023-02-22T05:29:47.649Z,61.87
2023-02-22T05:32:19.332Z,62.39
2023-02-22T05:34:50.959Z,61.55
2023-02-22T05:37:22.571Z,62.54
2023-02-22T05:39:54.190Z,61.55
2023-02-22T05:42:25.733Z,61.72
2023-02-22T05:44:57.299Z,62.34
2023-02-22T05:47:29.099Z,62.33
2023-02-22T05:50:00.768Z,63.34
2023-02-22T05:52:32.436Z,63.74
2023-02-22T05:55:05.795Z,63.70
2023-02-22T05:57:37.383Z,62.61
2023-02-22T06:00:10.682Z,64.07
2023-02-22T06:02:45.396Z,63.09
2023-02-22T06:05:17.042Z,61.89
2023-02-22T06:07:48.830Z,63.13
2023-02-22T06:10:21.142Z,63.22
2023-02-22T06:12:54.034Z,61.54
2023-02-22T06:15:27.383Z,62.26
2023-02-22T06:17:59.252Z,62.27
2023-02-22T06:20:31.241Z,62.56
2023-02-22T06:23:03.005Z,62.86
2023-02-22T06:25:34.648Z,63.10
2023-02-22T06:28:06.262Z,63.11
2023-02-22T06:30:37.969Z,63.21
2023-02-22T06:33:10.240Z,63.45
2023-02-22T06:35:41.878Z,64.08
2023-02-22T06:38:25.300Z,63.79
2023-02-22T06:40:57.283Z,62.96
2023-02-22T06:43:28.904Z,63.19
2023-02-22T06:46:00.495Z,63.95
2023-02-22T06:48:32.300Z,63.71
2023-02-22T06:51:04.531Z,64.12
2023-02-22T06:53:36.376Z,64.52
2023-02-22T06:56:08.053Z,63.23
2023-02-22T06:58:40.119Z,62.97
2023-02-22T07:01:12.294Z,64.36
2023-02-22T07:03:44.377Z,61.70
2023-02-22T07:06:16.375Z,62.22
2023-02-22T07:08:48.857Z,62.69
2023-02-22T07:11:20.540Z,61.86
2023-02-22T07:13:52.189Z,60.92
2023-02-22T07:16:23.777Z,60.95
2023-02-22T07:18:55.428Z,60.98
2023-02-22T07:21:29.112Z,61.54
2023-02-22T07:24:00.759Z,61.27
2023-02-22T07:26:38.886Z,62.05
2023-02-22T07:29:10.462Z,60.72
2023-02-22T07:31:42.035Z,58.84
2023-02-22T07:34:13.867Z,55.10
2023-02-22T07:36:45.638Z,56.58
2023-02-22T07:39:17.302Z,53.87
2023-02-22T07:41:48.922Z,53.20
2023-02-22T07:44:27.565Z,54.13
2023-02-22T07:46:59.228Z,52.88
2023-02-22T07:49:30.882Z,49.97
2023-02-22T07:52:02.746Z,48.24
2023-02-22T07:54:34.339Z,47.44
2023-02-22T07:57:05.928Z,46.59
2023-02-22T07:59:37.490Z,46.44
2023-02-22T08:02:17.086Z,44.60
2023-02-22T08:04:48.688Z,42.94
2023-02-22T08:07:20.280Z,48.45
2023-02-22T08:09:51.921Z,49.96
2023-02-22T08:12:23.506Z,50.16
2023-02-22T08:14:55.058Z,51.03
2023-02-22T08:17:26.606Z,51.76
2023-02-22T08:19:58.164Z,52.82
2023-02-22T08:22:29.726Z,52.86
2023-02-22T08:25:01.290Z,55.05
2023-02-22T08:27:32.873Z,57.02
2023-02-22T08:30:05.537Z,56.41
2023-02-22T08:32:37.160Z,57.20
2023-02-22T08:35:09.260Z,56.20
2023-02-22T08:37:44.777Z,57.45
2023-02-22T08:40:19.260Z,57.49
2023-02-22T08:42:51.113Z,60.67
2023-02-22T08:45:23.188Z,61.31
2023-02-22T08:47:55.133Z,63.79
2023-02-22T08:50:29.893Z,63.56
2023-02-22T08:53:03.598Z,63.98
2023-02-22T08:55:38.567Z,60.66
2023-02-22T08:58:10.768Z,54.34
2023-02-22T09:00:42.943Z,50.36
2023-02-22T09:03:15.568Z,46.82
2023-02-22T09:05:47.301Z,47.09
2023-02-22T09:08:19.679Z,46.36
2023-02-22T09:10:52.013Z,45.47
2023-02-22T09:13:23.548Z,44.52
2023-02-22T09:15:55.179Z,46.17
2023-02-22T09:18:39.033Z,45.26
2023-02-22T09:21:15.333Z,44.08
2023-02-22T09:23:47.964Z,45.81
2023-02-22T09:26:19.570Z,44.01
2023-02-22T09:28:51.219Z,41.26
2023-02-22T09:31:23.108Z,44.40
2023-02-22T09:33:54.929Z,43.16
2023-02-22T09:36:26.529Z,45.61
2023-02-22T09:38:58.121Z,47.20
2023-02-22T09:41:54.377Z,43.91
2023-02-22T09:45:12.290Z,42.79
2023-02-22T09:47:50.553Z,46.22
2023-02-22T09:50:30.318Z,46.34
2023-02-22T09:53:20.228Z,45.00
2023-02-22T09:55:54.042Z,45.13
2023-02-22T09:58:40.748Z,45.50
2023-02-22T10:01:16.605Z,45.67
2023-02-22T10:04:01.238Z,47.70
2023-02-22T10:06:35.389Z,46.45
2023-02-22T10:09:06.954Z,46.72
2023-02-22T10:12:10.089Z,43.78
2023-02-22T10:14:44.720Z,42.70
2023-02-22T10:17:39.732Z,47.34
2023-02-22T10:20:23.969Z,49.04
2023-02-22T10:23:32.143Z,47.97
2023-02-22T10:26:23.098Z,46.87
2023-02-22T10:29:02.805Z,46.31
2023-02-22T10:31:43.977Z,48.32
2023-02-22T10:34:26.245Z,48.90
2023-02-22T10:37:24.715Z,49.26
2023-02-22T10:40:18.400Z,49.89
2023-02-22T10:42:50.374Z,50.10
2023-02-22T10:45:26.820Z,51.37
2023-02-22T10:48:05.581Z,52.59
2023-02-22T10:50:42.133Z,52.96
2023-02-22T10:53:14.779Z,54.41
2023-02-22T10:56:06.601Z,56.45
2023-02-22T10:59:03.132Z,58.14
2023-02-22T11:01:39.491Z,56.81
2023-02-22T11:04:20.738Z,60.12
2023-02-22T11:07:01.289Z,59.50
2023-02-22T11:09:49.633Z,60.65
2023-02-22T11:12:32.124Z,59.46
2023-02-22T11:15:28.414Z,60.08
2023-02-22T11:18:00.124Z,61.30
2023-02-22T11:20:39.280Z,60.79
2023-02-22T11:23:11.030Z,61.36
2023-02-22T11:25:43.120Z,62.08
2023-02-22T11:28:28.004Z,63.60
2023-02-22T11:31:13.917Z,63.93
2023-02-22T11:34:00.127Z,64.81
2023-02-22T11:36:37.920Z,65.92
2023-02-22T11:39:24.759Z,66.45
2023-02-22T11:41:56.736Z,65.83
2023-02-22T11:44:31.612Z,65.50
2023-02-22T11:47:03.593Z,64.72
2023-02-22T11:49:44.071Z,64.74
2023-02-22T11:52:39.295Z,63.54
2023-02-22T11:55:36.341Z,64.15
2023-02-22T11:58:48.406Z,62.88
2023-02-22T12:01:37.266Z,63.78
2023-02-22T12:04:31.926Z,63.85
2023-02-22T12:07:18.666Z,63.21
2023-02-22T12:10:00.644Z,63.71
2023-02-22T12:12:41.413Z,63.18
2023-02-22T12:15:28.908Z,63.13
2023-02-22T12:18:09.983Z,63.33
2023-02-22T12:20:51.373Z,64.07
2023-02-22T12:23:45.821Z,65.07
2023-02-22T12:26:29.515Z,66.61
2023-02-22T12:29:11.398Z,64.73
2023-02-22T12:31:49.838Z,64.26
2023-02-22T12:34:27.549Z,65.14
2023-02-22T12:37:23.958Z,67.11
2023-02-22T12:40:06.004Z,64.63
2023-02-22T12:42:55.642Z,62.06
2023-02-22T12:45:41.637Z,64.17
2023-02-22T12:48:15.913Z,65.16
2023-02-22T12:50:55.448Z,66.90
2023-02-22T12:53:44.956Z,66.24
2023-02-22T12:56:32.684Z,66.72
2023-02-22T12:59:20.763Z,65.79
2023-02-22T13:02:00.561Z,67.53
2023-02-22T13:04:32.153Z,66.69
2023-02-22T13:07:29.795Z,64.90
2023-02-22T13:10:36.583Z,65.89
2023-02-22T13:13:51.001Z,67.92
2023-02-22T13:16:51.685Z,65.41
2023-02-22T13:19:42.937Z,66.67
2023-02-22T13:22:34.966Z,67.17
2023-02-22T13:25:27.717Z,68.57
2023-02-22T13:28:17.363Z,68.65
2023-02-22T13:31:14.930Z,67.13
2023-02-22T13:34:09.866Z,68.08
2023-02-22T13:36:59.541Z,68.20
2023-02-22T13:39:49.478Z,68.28
2023-02-22T13:42:47.346Z,68.36
2023-02-22T13:45:40.673Z,68.94
2023-02-22T13:48:32.329Z,67.04
2023-02-22T13:51:13.686Z,65.47
2023-02-22T13:53:55.254Z,65.25
2023-02-22T13:56:28.720Z,66.38
2023-02-22T13:59:03.534Z,65.42
2023-02-22T14:01:48.164Z,65.30
2023-02-22T14:04:29.334Z,66.37
2023-02-22T14:07:21.838Z,64.49
2023-02-22T14:09:56.220Z,65.38
2023-02-22T14:12:30.568Z,63.88
2023-02-22T14:15:26.534Z,64.82
2023-02-22T14:18:03.453Z,62.62
2023-02-22T14:20:38.006Z,63.24
2023-02-22T14:23:33.997Z,64.00
2023-02-22T14:26:14.932Z,63.60
2023-02-22T14:29:00.648Z,64.24
2023-02-22T14:31:54.839Z,66.21
2023-02-22T14:34:48.030Z,65.40
2023-02-22T14:37:35.807Z,63.98
2023-02-22T14:40:28.426Z,64.62
2023-02-22T14:43:20.399Z,65.31
2023-02-22T14:45:55.650Z,65.15
2023-02-22T14:48:41.278Z,64.32
2023-02-22T14:51:22.291Z,65.09
2023-02-22T14:54:00.106Z,65.46
2023-02-22T14:56:38.718Z,66.27
2023-02-22T14:59:18.991Z,65.39
2023-02-22T15:02:11.957Z,65.68
2023-02-22T15:04:54.992Z,63.36
2023-02-22T15:07:30.110Z,64.14
2023-02-22T15:10:06.650Z,65.68
2023-02-22T15:12:38.293Z,66.00
2023-02-22T15:15:18.626Z,67.73
2023-02-22T15:17:58.466Z,67.50
2023-02-22T15:20:30.547Z,68.41
2023-02-22T15:23:02.339Z,67.89
2023-02-22T15:25:34.163Z,70.71
2023-02-22T15:28:06.100Z,69.41
2023-02-22T15:30:37.773Z,68.82
2023-02-22T15:33:19.602Z,71.06
2023-02-22T15:35:57.770Z,71.91
2023-02-22T15:38:30.972Z,70.54
2023-02-22T15:41:05.829Z,71.51
2023-02-22T15:43:37.384Z,71.88
2023-02-22T15:46:09.514Z,70.21
2023-02-22T15:48:41.117Z,69.30
2023-02-22T15:51:15.300Z,68.26
2023-02-22T15:53:50.895Z,69.07
2023-02-22T15:56:29.257Z,68.44
2023-02-22T15:59:09.202Z,70.33
2023-02-22T16:01:45.367Z,71.49
2023-02-22T16:04:23.737Z,72.19
2023-02-22T16:07:08.534Z,73.34
2023-02-22T16:09:46.666Z,71.04
2023-02-22T16:12:21.232Z,69.90
2023-02-22T16:14:52.843Z,69.45
2023-02-22T16:17:44.572Z,68.42
2023-02-22T16:20:21.203Z,71.69
2023-02-22T16:22:57.980Z,71.62
2023-02-22T16:25:33.612Z,70.89
2023-02-22T16:28:26.847Z,73.41
2023-02-22T16:30:58.842Z,72.52
2023-02-22T16:33:30.506Z,72.43
2023-02-22T16:36:06.951Z,71.62
2023-02-22T16:38:38.806Z,69.44
2023-02-22T16:41:10.508Z,70.88
2023-02-22T16:43:43.310Z,71.10
2023-02-22T16:46:15.077Z,72.57
2023-02-22T16:48:46.829Z,71.24
2023-02-22T16:51:26.649Z,70.73
2023-02-22T16:53:58.494Z,70.50
2023-02-22T16:56:31.190Z,68.75
2023-02-22T16:59:11.213Z,68.94
2023-02-22T17:01:43.457Z,68.83
2023-02-22T17:04:26.074Z,69.02
2023-02-22T17:06:57.690Z,68.72
2023-02-22T17:09:29.288Z,69.20
2023-02-22T17:12:02.365Z,69.10
2023-02-22T17:14:35.936Z,67.94
2023-02-22T17:17:11.875Z,68.82
2023-02-22T17:19:43.715Z,67.89
2023-02-22T17:22:21.430Z,66.56
2023-02-22T17:24:53.113Z,67.32
2023-02-22T17:27:24.638Z,66.78
2023-02-22T17:29:56.221Z,66.74
2023-02-22T17:32:27.950Z,67.21
2023-02-22T17:35:02.405Z,65.95
2023-02-22T17:37:34.124Z,67.33
2023-02-22T17:40:06.315Z,66.25
2023-02-22T17:42:37.917Z,65.37
2023-02-22T17:45:12.013Z,66.22
2023-02-22T17:47:44.100Z,66.80
2023-02-22T17:50:16.537Z,66.22
2023-02-22T17:52:49.449Z,65.69
2023-02-22T17:55:22.173Z,65.76
2023-02-22T17:57:57.323Z,66.34
2023-02-22T18:00:34.768Z,67.45
2023-02-22T18:03:09.839Z,65.98
2023-02-22T18:05:55.659Z,66.57
2023-02-22T18:08:29.599Z,66.16
2023-02-22T18:11:04.228Z,66.60
2023-02-22T18:13:35.970Z,66.67
2023-02-22T18:16:10.980Z,66.17
2023-02-22T18:18:42.636Z,66.38
2023-02-22T18:21:14.398Z,66.33
2023-02-22T18:23:46.156Z,67.89
2023-02-22T18:26:20.328Z,68.27
2023-02-22T18:28:52.524Z,69.10
2023-02-22T18:31:24.137Z,67.92
2023-02-22T18:33:56.312Z,67.12
2023-02-22T18:36:28.471Z,69.02
2023-02-22T18:39:00.482Z,67.33
2023-02-22T18:41:32.159Z,67.56
2023-02-22T18:44:05.033Z,67.60
2023-02-22T18:46:36.884Z,68.20
2023-02-22T18:49:11.879Z,66.67
2023-02-22T18:51:43.531Z,66.24
2023-02-22T18:54:15.241Z,68.10
2023-02-22T18:56:46.957Z,67.50
2023-02-22T18:59:18.696Z,67.42
2023-02-22T19:01:50.554Z,67.26
2023-02-22T19:04:22.134Z,67.09
2023-02-22T19:06:55.186Z,67.14
2023-02-22T19:09:26.881Z,66.68
2023-02-22T19:11:58.511Z,67.95
2023-02-22T19:14:30.195Z,67.56
2023-02-22T19:17:02.015Z,66.57
2023-02-22T19:19:34.813Z,68.08
2023-02-22T19:22:06.477Z,68.64
2023-02-22T19:24:38.117Z,68.68
2023-02-22T19:27:11.102Z,67.76
2023-02-22T19:29:42.783Z,67.30
2023-02-22T19:32:14.445Z,67.65
2023-02-22T19:34:46.883Z,68.35
2023-02-22T19:37:19.231Z,67.40
2023-02-22T19:39:50.894Z,66.50
2023-02-22T19:42:22.629Z,67.81
2023-02-22T19:44:54.204Z,66.12
2023-02-22T19:47:25.931Z,67.25
2023-02-22T19:49:59.250Z,67.70
2023-02-22T19:52:31.900Z,66.83
2023-02-22T19:55:03.570Z,68.98
2023-02-22T19:57:35.213Z,68.05
2023-02-22T20:00:07.575Z,69.58
2023-02-22T20:02:42.861Z,67.84
2023-02-22T20:05:14.420Z,67.21
2023-02-22T20:07:46.092Z,67.16
2023-02-22T20:10:17.989Z,68.17
2023-02-22T20:12:49.853Z,69.26
2023-02-22T20:15:21.684Z,66.83
2023-02-22T20:17:54.571Z,69.25
2023-02-22T20:20:26.653Z,68.69
2023-02-22T20:22:58.861Z,67.04
2023-02-22T20:25:30.581Z,67.53
2023-02-22T20:28:02.403Z,68.37
2023-02-22T20:30:37.146Z,67.67
2023-02-22T20:33:09.012Z,68.33
2023-02-22T20:35:40.877Z,68.29
2023-02-22T20:38:13.918Z,68.48
2023-02-22T20:40:45.533Z,67.86
2023-02-22T20:43:17.120Z,68.20
2023-02-22T20:45:48.700Z,67.30
2023-02-22T20:48:20.254Z,66.86
2023-02-22T20:50:51.869Z,66.80
2023-02-22T20:53:23.917Z,66.59
2023-02-22T20:55:55.489Z,66.77
2023-02-22T20:58:27.496Z,70.35
2023-02-22T21:01:07.891Z,68.59
2023-02-22T21:03:41.144Z,68.19
2023-02-22T21:06:15.190Z,69.49
2023-02-22T21:08:54.858Z,68.45
2023-02-22T21:11:29.596Z,68.02
2023-02-22T21:14:02.405Z,68.77
2023-02-22T21:16:36.774Z,68.28
2023-02-22T21:19:11.942Z,67.56
2023-02-22T21:21:43.586Z,65.89
2023-02-22T21:24:15.434Z,67.38
2023-02-22T21:26:47.064Z,68.25
2023-02-22T21:29:19.445Z,67.87
2023-02-22T21:31:51.170Z,67.44
2023-02-22T21:34:22.802Z,67.74
2023-02-22T21:36:54.517Z,67.38
2023-02-22T21:39:26.196Z,68.35
2023-02-22T21:41:57.902Z,69.03
2023-02-22T21:44:29.609Z,68.65
2023-02-22T21:47:01.265Z,68.66
2023-02-22T21:49:32.993Z,69.03
2023-02-22T21:52:04.707Z,67.49
2023-02-22T21:54:36.452Z,67.70
2023-02-22T21:57:08.996Z,68.31
2023-02-22T21:59:40.548Z,68.33
2023-02-22T22:02:12.150Z,68.78
2023-02-22T22:04:43.740Z,67.82
2023-02-22T22:07:15.335Z,68.65
2023-02-22T22:09:46.906Z,68.26
2023-02-22T22:12:18.864Z,68.92
2023-02-22T22:14:52.600Z,68.81
2023-02-22T22:17:24.237Z,67.38
2023-02-22T22:19:55.803Z,68.06
2023-02-22T22:22:27.379Z,67.65
2023-02-22T22:24:59.000Z,68.27
2023-02-22T22:27:30.729Z,69.39
2023-02-22T22:30:02.302Z,69.40
2023-02-22T22:32:34.389Z,69.40
2023-02-22T22:35:08.690Z,68.66
2023-02-22T22:37:42.368Z,68.95
2023-02-22T22:40:14.238Z,68.73
2023-02-22T22:42:46.370Z,69.30
2023-02-22T22:45:17.993Z,69.67
2023-02-22T22:47:49.572Z,70.46
2023-02-22T22:50:21.172Z,70.20
2023-02-22T22:52:53.649Z,70.48
2023-02-22T22:55:25.305Z,69.23
2023-02-22T22:57:56.884Z,71.00
2023-02-22T23:00:28.462Z,72.81
2023-02-22T23:03:00.603Z,71.05
2023-02-22T23:05:40.089Z,69.30
2023-02-22T23:08:11.722Z,69.99
2023-02-22T23:10:43.291Z,69.05
2023-02-22T23:13:15.021Z,69.32
2023-02-22T23:15:46.858Z,70.03
2023-02-22T23:18:18.508Z,68.92
2023-02-22T23:20:50.189Z,68.54
2023-02-22T23:23:24.110Z,69.34
2023-02-22T23:26:08.311Z,71.52
2023-02-22T23:28:41.329Z,70.44
2023-02-22T23:31:16.296Z,69.42
2023-02-22T23:33:47.998Z,70.82
2023-02-22T23:36:20.245Z,69.79
2023-02-22T23:38:51.884Z,69.53
2023-02-22T23:41:23.473Z,68.29
2023-02-22T23:43:55.656Z,69.09
2023-02-22T23:46:27.345Z,69.57
2023-02-22T23:48:58.981Z,68.60
2023-02-22T23:51:31.540Z,70.01
2023-02-22T23:54:03.185Z,69.77
2023-02-22T23:56:36.987Z,70.35
2023-02-22T23:59:10.737Z,69.48
